Time;durP1;ratioP1;P1;durP2;ratioP2;P2;SDS_P1;SDS_P2;PMS_P1;PMS_P2;Temp;Humidity;BMP_temperature;BMP_pressure;BME280_temperature;BME280_humidity;BME280_pressure;Samples;Min_cycle;Max_cycle;Signal;HPM_P1;HPM_P2
2022/08/31 00:06:21;;;;;;;0.45;0.20;;;16.20;99.90;;;;;;4962456;28;20055;-81
2022/08/31 00:08:47;;;;;;;1.30;0.20;;;16.20;99.90;;;;;;4949286;28;20260;-81
2022/08/31 00:11:13;;;;;;;1.02;0.20;;;16.20;99.90;;;;;;4967859;28;20146;-79
2022/08/31 00:13:40;;;;;;;1.65;0.55;;;16.20;99.90;;;;;;4992099;28;20539;-81
2022/08/31 00:16:07;;;;;;;1.58;0.28;;;16.20;99.90;;;;;;4964579;28;20114;-80
2022/08/31 00:18:33;;;;;;;1.35;0.22;;;16.20;99.90;;;;;;4963335;28;20126;-81
2022/08/31 00:20:59;;;;;;;3.22;0.25;;;16.20;99.90;;;;;;4961651;28;20162;-79
2022/08/31 00:23:24;;;;;;;2.58;0.20;;;16.20;99.90;;;;;;4996384;28;20518;-80
2022/08/31 00:25:50;;;;;;;1.42;0.15;;;16.20;99.90;;;;;;4995763;28;20519;-79
2022/08/31 00:28:17;;;;;;;0.70;0.22;;;16.20;99.90;;;;;;4963649;28;20511;-81
2022/08/31 00:30:43;;;;;;;1.27;0.20;;;16.10;99.90;;;;;;4964766;28;20053;-80
2022/08/31 00:33:10;;;;;;;0.63;0.30;;;16.20;99.90;;;;;;4964743;28;20054;-81
2022/08/31 00:35:37;;;;;;;0.63;0.22;;;16.10;99.90;;;;;;4962762;28;20039;-80
2022/08/31 00:38:04;;;;;;;1.85;0.30;;;16.10;99.90;;;;;;4963629;28;20097;-79
2022/08/31 00:40:30;;;;;;;1.40;0.13;;;16.10;99.90;;;;;;4970421;28;21794;-81
2022/08/31 00:42:58;;;;;;;2.92;0.15;;;16.00;99.90;;;;;;4964883;28;20054;-78
2022/08/31 00:45:24;;;;;;;2.30;0.20;;;16.00;99.90;;;;;;4995785;28;20043;-80
2022/08/31 00:47:49;;;;;;;1.85;0.10;;;16.00;99.90;;;;;;4962816;28;20226;-80
2022/08/31 00:50:17;;;;;;;0.22;0.10;;;15.90;99.90;;;;;;4963476;28;20051;-77
2022/08/31 00:52:47;;;;;;;1.65;0.20;;;15.80;99.90;;;;;;4963640;28;20042;-81
2022/08/31 00:55:18;;;;;;;1.27;0.30;;;15.80;99.90;;;;;;4961283;28;21333;-76
2022/08/31 00:57:48;;;;;;;0.30;0.22;;;15.80;99.90;;;;;;4993097;28;20526;-80
2022/08/31 01:00:17;;;;;;;0.43;0.30;;;15.80;99.70;;;;;;4980240;28;20070;-78
2022/08/31 01:02:43;;;;;;;1.73;0.10;;;15.90;99.40;;;;;;4972008;28;20488;-81
2022/08/31 01:05:10;;;;;;;0.20;0.10;;;15.80;99.30;;;;;;4965950;28;20055;-79
2022/08/31 01:07:36;;;;;;;2.05;0.20;;;15.70;99.10;;;;;;4962382;28;20038;-79
2022/08/31 01:10:04;;;;;;;0.75;0.13;;;15.70;99.00;;;;;;4968060;28;20031;-80
2022/08/31 01:12:29;;;;;;;0.55;0.10;;;15.80;98.80;;;;;;5000119;28;20054;-80
2022/08/31 01:14:56;;;;;;;0.85;0.20;;;15.70;98.90;;;;;;5002877;28;20377;-81
2022/08/31 01:17:22;;;;;;;1.60;0.17;;;15.70;98.90;;;;;;4965156;28;20027;-81
2022/08/31 01:19:50;;;;;;;0.40;0.10;;;15.70;99.00;;;;;;4966472;28;20098;-78
2022/08/31 01:22:43;;;;;;;1.73;0.20;;;15.60;99.00;;;;;;4969480;28;20437;-78
2022/08/31 01:25:09;;;;;;;0.30;0.20;;;15.60;99.00;;;;;;4970575;28;20047;-80
2022/08/31 01:27:35;;;;;;;0.15;0.10;;;15.60;99.10;;;;;;4965995;28;20414;-81
2022/08/31 01:30:05;;;;;;;0.65;0.20;;;15.50;99.10;;;;;;4966081;28;20066;-80
2022/08/31 01:32:31;;;;;;;1.02;0.20;;;15.50;99.20;;;;;;4964812;28;20055;-78
2022/08/31 01:34:56;;;;;;;2.72;0.55;;;15.50;99.10;;;;;;4967775;28;20049;-79
2022/08/31 01:37:22;;;;;;;0.50;0.10;;;15.40;99.40;;;;;;4963547;28;20102;-81
2022/08/31 01:39:49;;;;;;;1.90;0.10;;;15.30;99.10;;;;;;4963136;28;20042;-81
2022/08/31 01:42:15;;;;;;;0.30;0.20;;;15.30;99.10;;;;;;4975285;28;20055;-80
2022/08/31 01:44:41;;;;;;;1.98;0.20;;;15.20;99.10;;;;;;4967855;28;21023;-81
2022/08/31 01:47:06;;;;;;;0.38;0.20;;;15.20;99.10;;;;;;4973527;28;20051;-81
2022/08/31 01:49:32;;;;;;;0.50;0.20;;;15.20;99.10;;;;;;4964149;28;20081;-81
2022/08/31 01:51:57;;;;;;;1.58;0.25;;;15.10;99.10;;;;;;4973742;28;20074;-80
2022/08/31 01:54:25;;;;;;;0.30;0.10;;;15.10;99.10;;;;;;4963099;28;20082;-80
2022/08/31 01:56:51;;;;;;;0.47;0.10;;;15.10;99.00;;;;;;4967686;28;20051;-81
2022/08/31 01:59:19;;;;;;;0.38;0.13;;;15.10;98.90;;;;;;4964734;28;20055;-81
2022/08/31 02:01:49;;;;;;;0.43;0.10;;;15.00;99.00;;;;;;4999221;28;20047;-79
2022/08/31 02:04:16;;;;;;;2.63;0.10;;;15.00;99.10;;;;;;4998783;28;20451;-80
2022/08/31 02:06:45;;;;;;;0.52;0.10;;;14.90;99.10;;;;;;4966468;28;20137;-81
2022/08/31 02:09:11;;;;;;;0.13;0.10;;;14.90;99.20;;;;;;4963615;28;20146;-81
2022/08/31 02:11:37;;;;;;;0.63;0.10;;;14.80;99.20;;;;;;4967480;28;20130;-81
2022/08/31 02:14:02;;;;;;;0.80;0.10;;;14.80;99.30;;;;;;4966614;28;20039;-81
2022/08/31 02:16:28;;;;;;;4.03;0.40;;;14.70;99.30;;;;;;4955127;28;20483;-81
2022/08/31 02:18:54;;;;;;;0.45;0.20;;;14.60;99.30;;;;;;4964986;28;20086;-80
2022/08/31 02:21:20;;;;;;;1.02;0.20;;;14.60;99.40;;;;;;4964041;28;20250;-80
2022/08/31 02:23:46;;;;;;;3.30;0.20;;;14.60;99.50;;;;;;4964567;28;20047;-81
2022/08/31 02:26:13;;;;;;;3.47;0.43;;;14.50;99.60;;;;;;4966781;28;20043;-81
2022/08/31 02:28:39;;;;;;;0.75;0.10;;;14.50;99.90;;;;;;4963762;28;20043;-79
2022/08/31 02:31:04;;;;;;;0.35;0.20;;;14.40;99.90;;;;;;4993328;28;20055;-79
2022/08/31 02:33:30;;;;;;;0.38;0.20;;;14.30;99.90;;;;;;4994836;28;20045;-81
2022/08/31 02:35:56;;;;;;;0.38;0.10;;;14.20;99.90;;;;;;4964709;28;20760;-81
2022/08/31 02:38:21;;;;;;;0.85;0.10;;;14.20;99.90;;;;;;4964043;28;20042;-80
2022/08/31 02:40:48;;;;;;;0.52;0.20;;;14.10;99.90;;;;;;4963678;28;20089;-81
2022/08/31 02:43:14;;;;;;;0.20;0.10;;;14.10;99.90;;;;;;4965852;28;20077;-81
2022/08/31 02:45:39;;;;;;;1.65;0.10;;;14.00;99.90;;;;;;4967009;28;20086;-80
2022/08/31 02:48:06;;;;;;;0.20;0.10;;;14.00;99.90;;;;;;4966696;28;20074;-80
2022/08/31 02:50:32;;;;;;;0.73;0.20;;;13.90;99.90;;;;;;4965755;28;20047;-80
2022/08/31 02:52:58;;;;;;;1.08;0.20;;;13.90;99.90;;;;;;4980401;28;20082;-81
2022/08/31 02:55:25;;;;;;;0.45;0.20;;;13.80;99.90;;;;;;4997429;28;20074;-81
2022/08/31 02:57:52;;;;;;;1.02;0.20;;;13.70;99.90;;;;;;4965505;28;20109;-81
2022/08/31 03:00:20;;;;;;;0.68;0.30;;;13.80;99.90;;;;;;4967027;28;20054;-81
2022/08/31 03:02:47;;;;;;;0.93;0.20;;;13.70;99.90;;;;;;4961217;28;20085;-79
2022/08/31 03:05:13;;;;;;;0.80;0.20;;;13.60;99.90;;;;;;4966689;28;20046;-81
2022/08/31 03:07:38;;;;;;;0.28;0.20;;;13.60;99.90;;;;;;4966051;28;20054;-81
2022/08/31 03:10:07;;;;;;;0.82;0.25;;;13.60;99.90;;;;;;4969469;28;20443;-81
2022/08/31 03:12:34;;;;;;;5.53;0.20;;;13.50;99.90;;;;;;4962201;28;20047;-78
2022/08/31 03:14:59;;;;;;;0.45;0.20;;;13.50;99.90;;;;;;4980112;28;20054;-79
2022/08/31 03:17:25;;;;;;;0.63;0.22;;;13.50;99.90;;;;;;4966698;28;20054;-80
2022/08/31 03:19:53;;;;;;;0.38;0.20;;;13.40;99.90;;;;;;4963504;28;20050;-80
2022/08/31 03:22:18;;;;;;;1.40;0.20;;;13.40;99.90;;;;;;4977808;28;20109;-80
2022/08/31 03:24:44;;;;;;;0.47;0.10;;;13.40;99.90;;;;;;4962292;28;20443;-80
2022/08/31 03:27:09;;;;;;;0.57;0.20;;;13.30;99.90;;;;;;4970438;28;20031;-81
2022/08/31 03:29:35;;;;;;;1.25;0.20;;;13.30;99.90;;;;;;4964818;28;20046;-81
2022/08/31 03:32:01;;;;;;;0.63;0.20;;;13.30;99.90;;;;;;4966303;28;20057;-81
2022/08/31 03:34:27;;;;;;;0.73;0.20;;;13.30;99.90;;;;;;4960048;28;20078;-81
2022/08/31 03:36:53;;;;;;;2.10;0.30;;;13.20;99.90;;;;;;4966419;28;20095;-81
2022/08/31 03:39:18;;;;;;;2.38;0.30;;;13.20;99.90;;;;;;4969380;28;20074;-78
2022/08/31 03:41:44;;;;;;;1.30;0.20;;;13.10;99.90;;;;;;4997516;28;20038;-80
2022/08/31 03:44:09;;;;;;;0.70;0.20;;;13.10;99.90;;;;;;4965861;28;20051;-81
2022/08/31 03:46:35;;;;;;;0.90;0.20;;;13.10;99.90;;;;;;4961705;28;20070;-81
2022/08/31 03:49:02;;;;;;;3.50;0.22;;;13.00;99.90;;;;;;4963812;28;20043;-80
2022/08/31 03:51:28;;;;;;;0.88;0.20;;;13.00;99.90;;;;;;4967215;28;20046;-80
2022/08/31 03:53:54;;;;;;;0.57;0.43;;;13.00;99.90;;;;;;4963671;28;20057;-81
2022/08/31 03:56:20;;;;;;;0.52;0.20;;;12.90;99.90;;;;;;4961722;28;20122;-82
2022/08/31 03:58:46;;;;;;;0.60;0.30;;;12.90;99.90;;;;;;4963044;28;20567;-81
2022/08/31 04:01:13;;;;;;;1.58;0.20;;;12.90;99.90;;;;;;4965476;28;20130;-79
2022/08/31 04:03:39;;;;;;;2.50;0.22;;;12.90;99.90;;;;;;4964392;28;20483;-80
2022/08/31 04:06:09;;;;;;;1.55;0.30;;;12.80;99.90;;;;;;4962657;28;20057;-82
2022/08/31 04:08:36;;;;;;;0.70;0.20;;;12.80;99.90;;;;;;4964323;28;20061;-80
2022/08/31 04:11:08;;;;;;;0.63;0.20;;;12.80;99.90;;;;;;4967511;28;20047;-80
2022/08/31 04:13:35;;;;;;;0.63;0.20;;;12.80;99.90;;;;;;4964688;28;20046;-80
2022/08/31 04:16:00;;;;;;;1.17;0.32;;;12.70;99.90;;;;;;4962915;28;20030;-81
2022/08/31 04:18:26;;;;;;;0.75;0.20;;;12.70;99.90;;;;;;4993902;28;20101;-78
2022/08/31 04:20:51;;;;;;;1.23;0.28;;;12.70;99.90;;;;;;4979077;28;20038;-79
2022/08/31 04:23:17;;;;;;;1.23;0.22;;;12.70;99.90;;;;;;4954537;28;20047;-80
2022/08/31 04:25:42;;;;;;;1.52;0.63;;;12.60;99.90;;;;;;4996074;28;20042;-81
2022/08/31 04:28:09;;;;;;;0.70;0.20;;;12.60;99.90;;;;;;4961952;28;20176;-79
2022/08/31 04:30:39;;;;;;;2.35;0.30;;;12.60;99.90;;;;;;4964960;28;20495;-79
2022/08/31 04:33:05;;;;;;;0.85;0.22;;;12.50;99.90;;;;;;4954476;28;20046;-79
2022/08/31 04:35:30;;;;;;;0.75;0.30;;;12.50;99.90;;;;;;4968464;28;20047;-78
2022/08/31 04:37:56;;;;;;;2.08;0.22;;;12.50;99.90;;;;;;4961505;28;20046;-78
2022/08/31 04:40:21;;;;;;;3.97;0.40;;;12.50;99.90;;;;;;4962175;28;20097;-77
2022/08/31 04:42:47;;;;;;;4.35;0.40;;;12.50;99.90;;;;;;4965794;28;20546;-77
2022/08/31 04:45:14;;;;;;;2.90;0.52;;;12.50;99.90;;;;;;4965680;28;20444;-79
2022/08/31 04:47:41;;;;;;;1.25;0.20;;;12.50;99.90;;;;;;4961567;28;20108;-78
2022/08/31 04:50:08;;;;;;;1.00;0.30;;;12.50;99.90;;;;;;4958479;28;20032;-79
2022/08/31 04:52:34;;;;;;;2.70;0.30;;;12.50;99.90;;;;;;4968592;28;20047;-76
2022/08/31 04:54:59;;;;;;;0.70;0.20;;;12.50;99.90;;;;;;4960282;28;20047;-77
2022/08/31 04:57:26;;;;;;;0.60;0.30;;;12.40;99.90;;;;;;4958557;28;20042;-81
2022/08/31 04:59:51;;;;;;;2.55;0.38;;;12.50;99.90;;;;;;4960561;28;20046;-80
2022/08/31 05:02:17;;;;;;;2.35;0.40;;;12.40;99.90;;;;;;4960858;28;20051;-79
2022/08/31 05:04:42;;;;;;;1.52;0.50;;;12.50;99.90;;;;;;4957295;28;20051;-79
2022/08/31 05:07:08;;;;;;;1.65;0.30;;;12.50;99.90;;;;;;4959482;28;20054;-77
2022/08/31 05:09:34;;;;;;;2.92;0.30;;;12.50;99.90;;;;;;4989585;28;20046;-80
2022/08/31 05:11:59;;;;;;;1.00;0.30;;;12.50;99.90;;;;;;4962062;28;20095;-77
2022/08/31 05:14:25;;;;;;;0.70;0.30;;;12.50;99.90;;;;;;4962521;28;20050;-76
2022/08/31 05:16:51;;;;;;;2.53;0.30;;;12.50;99.90;;;;;;4961039;28;20050;-77
2022/08/31 05:19:18;;;;;;;1.42;0.40;;;12.70;99.90;;;;;;4960902;28;20381;-77
2022/08/31 05:21:44;;;;;;;2.67;0.20;;;13.30;99.90;;;;;;4966550;28;20039;-76
2022/08/31 05:24:19;;;;;;;0.45;0.20;;;14.20;99.90;;;;;;4963360;28;20167;-78
2022/08/31 05:26:51;;;;;;;1.23;0.30;;;15.10;99.90;;;;;;4962103;28;20055;-77
2022/08/31 05:29:19;;;;;;;0.47;0.20;;;16.20;99.90;;;;;;4957878;28;20481;-79
2022/08/31 05:31:45;;;;;;;2.03;0.20;;;17.40;99.90;;;;;;4993699;28;20050;-78
2022/08/31 05:34:13;;;;;;;3.00;0.30;;;18.50;99.90;;;;;;4959900;28;20475;-78
2022/08/31 05:36:41;;;;;;;2.05;0.52;;;19.30;99.90;;;;;;4958560;28;20043;-78
2022/08/31 05:39:10;;;;;;;1.10;0.35;;;19.30;99.90;;;;;;4952798;28;20118;-78
2022/08/31 05:41:37;;;;;;;0.68;0.30;;;19.20;99.90;;;;;;4963064;28;20047;-81
2022/08/31 05:44:04;;;;;;;1.65;0.20;;;18.70;99.70;;;;;;4961397;28;20106;-79
2022/08/31 05:46:30;;;;;;;1.50;0.20;;;18.60;99.90;;;;;;4964148;28;20051;-80
2022/08/31 05:48:56;;;;;;;3.03;0.30;;;18.80;99.80;;;;;;4962379;28;20125;-78
2022/08/31 05:51:21;;;;;;;1.52;0.28;;;19.30;99.60;;;;;;4967354;28;20036;-78
2022/08/31 05:53:47;;;;;;;3.10;0.30;;;19.60;98.80;;;;;;4993175;28;20076;-80
2022/08/31 05:56:15;;;;;;;2.78;0.20;;;19.80;98.80;;;;;;4968447;28;20039;-80
2022/08/31 05:58:42;;;;;;;0.45;0.20;;;20.40;98.40;;;;;;4965868;28;20039;-79
2022/08/31 06:01:12;;;;;;;0.43;0.30;;;21.00;97.50;;;;;;4966702;28;20133;-78
2022/08/31 06:03:38;;;;;;;1.40;0.20;;;21.50;96.90;;;;;;4962746;28;20046;-78
2022/08/31 06:06:03;;;;;;;0.55;0.20;;;22.20;96.70;;;;;;4932099;28;20047;-79
2022/08/31 06:08:29;;;;;;;2.28;0.30;;;23.10;96.10;;;;;;4960562;28;20054;-79
2022/08/31 06:10:59;;;;;;;1.40;0.20;;;24.00;95.00;;;;;;4992809;28;20047;-78
2022/08/31 06:13:25;;;;;;;1.80;0.30;;;24.70;93.80;;;;;;4990608;28;20050;-78
2022/08/31 06:15:51;;;;;;;0.85;0.30;;;25.30;92.60;;;;;;4958994;28;20111;-78
2022/08/31 06:18:19;;;;;;;1.48;0.30;;;25.80;92.10;;;;;;4961937;28;20055;-81
2022/08/31 06:20:45;;;;;;;3.33;0.30;;;26.60;91.40;;;;;;4947821;28;20054;-79
2022/08/31 06:23:11;;;;;;;0.50;0.30;;;26.90;90.80;;;;;;4961832;28;20050;-79
2022/08/31 06:25:36;;;;;;;0.57;0.20;;;27.50;90.50;;;;;;4956455;28;20043;-80
2022/08/31 06:28:06;;;;;;;1.35;0.47;;;28.00;88.90;;;;;;4960361;28;20186;-82
2022/08/31 06:30:35;;;;;;;1.77;0.75;;;28.50;87.60;;;;;;4992735;28;20041;-78
2022/08/31 06:33:01;;;;;;;2.40;0.30;;;28.90;86.10;;;;;;4963324;28;20055;-83
2022/08/31 06:35:27;;;;;;;0.80;0.40;;;29.00;85.20;;;;;;4960606;28;20038;-78
2022/08/31 06:37:55;;;;;;;0.30;0.30;;;29.00;84.00;;;;;;4961068;28;20055;-79
2022/08/31 06:40:23;;;;;;;1.38;0.40;;;29.30;82.70;;;;;;4994215;28;20100;-80
2022/08/31 06:42:49;;;;;;;0.90;0.38;;;29.30;82.20;;;;;;4965760;28;20039;-79
2022/08/31 06:45:15;;;;;;;1.90;0.32;;;29.60;81.30;;;;;;4962198;28;20082;-79
2022/08/31 06:47:41;;;;;;;0.82;0.65;;;29.40;80.70;;;;;;4993716;28;20030;-79
2022/08/31 06:50:07;;;;;;;1.60;0.50;;;29.30;79.90;;;;;;4962566;28;20090;-78
2022/08/31 06:52:33;;;;;;;1.50;0.43;;;29.30;79.30;;;;;;4993936;28;20097;-78
2022/08/31 06:54:59;;;;;;;1.40;0.40;;;28.80;79.30;;;;;;4993531;28;20039;-79
2022/08/31 06:57:25;;;;;;;1.15;0.50;;;28.80;78.80;;;;;;4991450;28;20101;-79
2022/08/31 06:59:52;;;;;;;0.73;0.38;;;28.40;79.50;;;;;;4962379;28;20961;-82
2022/08/31 07:02:18;;;;;;;3.25;0.50;;;27.50;79.80;;;;;;4965956;28;20069;-78
2022/08/31 07:04:45;;;;;;;2.20;0.40;;;26.30;81.20;;;;;;4961448;28;20043;-78
2022/08/31 07:07:10;;;;;;;3.60;0.63;;;25.40;83.10;;;;;;4962113;28;20067;-78
2022/08/31 07:09:38;;;;;;;0.98;0.40;;;24.40;84.40;;;;;;4957188;28;20077;-82
2022/08/31 07:12:05;;;;;;;1.75;0.55;;;23.90;86.10;;;;;;4962059;28;20407;-78
2022/08/31 07:14:31;;;;;;;2.45;0.50;;;23.10;87.90;;;;;;4961008;28;22062;-78
2022/08/31 07:16:57;;;;;;;2.05;0.40;;;22.50;89.20;;;;;;4960889;28;20068;-78
2022/08/31 07:19:24;;;;;;;1.23;0.50;;;22.10;90.30;;;;;;4971838;28;20648;-77
2022/08/31 07:21:53;;;;;;;1.92;0.47;;;21.70;90.90;;;;;;4962074;28;20074;-79
2022/08/31 07:24:23;;;;;;;0.80;0.50;;;21.50;91.40;;;;;;4944327;28;20055;-78
2022/08/31 07:27:03;;;;;;;1.50;0.40;;;21.20;91.60;;;;;;4964794;28;20118;-78
2022/08/31 07:29:31;;;;;;;1.83;0.30;;;21.10;92.10;;;;;;4988776;28;20170;-77
2022/08/31 07:31:58;;;;;;;1.80;0.40;;;20.90;92.30;;;;;;4960857;28;20504;-78
2022/08/31 07:34:27;;;;;;;1.08;0.47;;;20.70;92.90;;;;;;4959603;28;20055;-81
2022/08/31 07:42:27;;;;;;;0.70;0.30;;;20.20;93.50;;;;;;4961282;28;20988;-81
2022/08/31 07:44:54;;;;;;;1.98;0.38;;;20.10;93.40;;;;;;4962125;28;20047;-77
2022/08/31 07:47:21;;;;;;;3.55;0.43;;;19.90;93.30;;;;;;4961858;28;20050;-77
2022/08/31 07:49:50;;;;;;;0.77;0.32;;;19.70;93.00;;;;;;4957840;28;20062;-77
2022/08/31 07:52:22;;;;;;;1.95;0.50;;;19.70;93.20;;;;;;4960361;28;20047;-80
2022/08/31 07:54:50;;;;;;;1.20;0.20;;;19.60;92.90;;;;;;4965877;28;20590;-77
2022/08/31 07:57:18;;;;;;;1.63;0.50;;;19.60;93.10;;;;;;4979279;28;20086;-78
2022/08/31 07:59:48;;;;;;;1.65;0.30;;;19.60;93.30;;;;;;4990069;28;20043;-77
2022/08/31 08:02:15;;;;;;;1.88;0.40;;;19.60;93.40;;;;;;4957986;28;20822;-79
2022/08/31 08:04:43;;;;;;;1.77;0.40;;;19.70;93.50;;;;;;4962305;28;20043;-82
2022/08/31 08:07:10;;;;;;;2.33;0.40;;;19.80;93.50;;;;;;4990250;28;20467;-79
2022/08/31 08:09:36;;;;;;;3.50;0.43;;;19.90;93.60;;;;;;4960868;28;20074;-83
2022/08/31 08:12:05;;;;;;;2.40;0.30;;;19.90;93.30;;;;;;4961568;28;20039;-78
2022/08/31 08:14:33;;;;;;;4.07;0.40;;;20.00;93.60;;;;;;4960881;28;20047;-78
2022/08/31 08:16:59;;;;;;;5.88;0.50;;;20.10;93.70;;;;;;4962313;28;20046;-83
2022/08/31 08:19:26;;;;;;;1.13;0.30;;;20.00;93.60;;;;;;4965443;28;20047;-78
2022/08/31 08:21:51;;;;;;;1.00;0.30;;;20.00;93.70;;;;;;4975544;28;20047;-78
2022/08/31 08:24:17;;;;;;;0.70;0.20;;;20.10;93.80;;;;;;4961606;28;20108;-78
2022/08/31 08:26:45;;;;;;;1.13;0.30;;;20.30;94.10;;;;;;4995418;28;20041;-77
2022/08/31 08:29:11;;;;;;;1.95;0.30;;;20.40;93.80;;;;;;4963517;28;20101;-77
2022/08/31 08:31:37;;;;;;;2.75;0.30;;;20.50;93.90;;;;;;4962907;28;20443;-79
2022/08/31 08:34:03;;;;;;;0.88;0.30;;;20.60;93.50;;;;;;4960201;28;20039;-79
2022/08/31 08:36:33;;;;;;;1.00;0.30;;;20.70;93.60;;;;;;4959242;28;20125;-81
2022/08/31 08:38:59;;;;;;;2.55;0.28;;;20.90;93.60;;;;;;4958305;28;20518;-81
2022/08/31 08:41:27;;;;;;;5.60;0.32;;;21.10;93.40;;;;;;4959591;28;20047;-77
2022/08/31 08:43:55;;;;;;;9.82;0.40;;;21.10;93.50;;;;;;4954797;28;20061;-78
2022/08/31 08:46:47;;;;;;;0.88;0.25;;;21.10;92.90;;;;;;4992002;28;20047;-78
2022/08/31 08:49:23;;;;;;;1.65;0.30;;;21.00;92.90;;;;;;4991740;28;20053;-79
2022/08/31 08:51:53;;;;;;;3.30;0.30;;;21.20;93.10;;;;;;4960363;28;20074;-79
2022/08/31 08:54:30;;;;;;;1.52;0.30;;;21.40;93.10;;;;;;4960436;28;20047;-80
2022/08/31 08:56:56;;;;;;;1.38;0.30;;;21.40;92.70;;;;;;4959151;28;22131;-78
2022/08/31 08:59:22;;;;;;;3.28;0.20;;;21.40;92.30;;;;;;4966380;28;20403;-80
2022/08/31 09:01:51;;;;;;;2.80;0.20;;;21.30;92.60;;;;;;4950407;28;20054;-84
2022/08/31 09:04:42;;;;;;;1.33;0.30;;;21.50;92.90;;;;;;4961217;28;20039;-78
2022/08/31 09:07:51;;;;;;;1.25;0.30;;;21.40;92.20;;;;;;4987529;28;20053;-79
2022/08/31 09:10:40;;;;;;;1.65;0.40;;;21.30;92.00;;;;;;4983279;28;20103;-78
2022/08/31 09:13:47;;;;;;;1.35;0.50;;;21.10;92.00;;;;;;4976948;28;20096;-79
2022/08/31 09:16:28;;;;;;;0.88;0.57;;;21.00;91.90;;;;;;4958283;28;20035;-78
2022/08/31 09:19:03;;;;;;;1.48;0.40;;;20.70;91.70;;;;;;4989584;28;20043;-80
2022/08/31 09:21:34;;;;;;;2.30;0.40;;;20.70;92.20;;;;;;4963397;28;20425;-79
2022/08/31 09:24:05;;;;;;;4.78;0.32;;;20.80;92.40;;;;;;4960989;28;20670;-78
2022/08/31 09:26:45;;;;;;;0.57;0.25;;;20.80;92.30;;;;;;4962567;28;20055;-83
2022/08/31 09:29:23;;;;;;;1.55;0.38;;;20.80;92.00;;;;;;4977417;28;20189;-82
2022/08/31 09:32:22;;;;;;;2.67;0.20;;;21.00;91.70;;;;;;4978847;28;20480;-79
2022/08/31 09:35:00;;;;;;;0.77;0.55;;;21.20;91.60;;;;;;4956884;28;20043;-79
2022/08/31 09:38:10;;;;;;;1.45;0.57;;;21.20;91.20;;;;;;4961643;28;20046;-79
2022/08/31 09:40:40;;;;;;;1.60;0.30;;;21.20;91.00;;;;;;4961464;28;20093;-80
2022/08/31 09:43:14;;;;;;;0.70;0.30;;;21.20;91.10;;;;;;4966025;28;20038;-78
2022/08/31 09:46:04;;;;;;;0.85;0.20;;;21.20;91.20;;;;;;4993785;28;20051;-78
2022/08/31 09:48:54;;;;;;;5.50;0.30;;;21.20;90.80;;;;;;4992657;28;20054;-83
2022/08/31 09:51:31;;;;;;;2.90;0.30;;;21.20;90.60;;;;;;4962160;28;20546;-78
2022/08/31 09:56:56;;;;;;;8.18;0.30;;;21.20;90.50;;;;;;4961903;28;20092;-79
2022/08/31 09:59:36;;;;;;;1.67;0.22;;;21.40;90.70;;;;;;4960697;28;20047;-77
2022/08/31 10:02:10;;;;;;;7.72;0.20;;;21.60;90.40;;;;;;4996670;28;20069;-78
2022/08/31 10:04:49;;;;;;;1.65;0.30;;;21.70;90.40;;;;;;4975759;28;20046;-78
2022/08/31 10:08:03;;;;;;;2.30;0.20;;;22.00;90.50;;;;;;4993076;28;20053;-78
2022/08/31 10:10:35;;;;;;;2.53;0.30;;;22.20;90.20;;;;;;4963399;28;20104;-80
2022/08/31 10:13:15;;;;;;;2.63;0.25;;;22.30;90.00;;;;;;4962349;28;20052;-78
2022/08/31 10:16:05;;;;;;;3.60;0.20;;;22.30;88.90;;;;;;4996768;28;20438;-79
2022/08/31 10:18:38;;;;;;;0.50;0.20;;;22.10;89.10;;;;;;4967877;28;20118;-82
2022/08/31 10:21:19;;;;;;;0.88;0.20;;;22.10;88.60;;;;;;4963783;28;21102;-81
2022/08/31 10:23:54;;;;;;;3.30;0.65;;;22.00;88.60;;;;;;4965182;28;20495;-81
2022/08/31 10:26:45;;;;;;;2.33;0.40;;;22.10;89.00;;;;;;4969127;28;20058;-81
2022/08/31 10:29:32;;;;;;;0.43;0.22;;;21.90;87.80;;;;;;4967109;28;20038;-81
2022/08/31 10:32:01;;;;;;;1.35;0.35;;;21.90;88.50;;;;;;5000536;28;20395;-81
2022/08/31 10:37:23;;;;;;;3.47;0.30;;;22.10;89.20;;;;;;4968345;28;20102;-81
2022/08/31 10:39:57;;;;;;;1.27;0.40;;;22.00;89.50;;;;;;4965871;28;20126;-82
2022/08/31 10:42:36;;;;;;;7.65;1.05;;;22.10;88.20;;;;;;5005510;28;20055;-79
2022/08/31 10:45:09;;;;;;;1.17;0.25;;;22.10;89.40;;;;;;5000214;28;20039;-80
2022/08/31 10:47:41;;;;;;;3.00;0.25;;;22.20;89.20;;;;;;4960107;28;20797;-78
2022/08/31 10:50:09;;;;;;;1.25;0.32;;;22.30;89.70;;;;;;4999412;28;20046;-79
2022/08/31 10:53:07;;;;;;;5.65;0.30;;;22.40;88.90;;;;;;4965536;28;20070;-78
2022/08/31 10:55:44;;;;;;;4.85;0.40;;;22.40;89.80;;;;;;4947766;28;20522;-79
2022/08/31 10:58:20;;;;;;;3.13;0.30;;;22.50;88.40;;;;;;4964107;28;20080;-79
2022/08/31 11:00:50;;;;;;;1.75;0.52;;;22.60;88.20;;;;;;4990582;28;20560;-77
2022/08/31 11:03:44;;;;;;;1.13;0.20;;;22.40;87.80;;;;;;4964542;28;20046;-78
2022/08/31 11:06:25;;;;;;;1.75;0.28;;;22.40;88.10;;;;;;4959823;28;20062;-80
2022/08/31 11:09:07;;;;;;;4.82;0.30;;;22.30;88.60;;;;;;4989471;28;20042;-78
2022/08/31 11:11:44;;;;;;;1.30;0.35;;;22.50;89.20;;;;;;4987037;28;20779;-78
2022/08/31 11:14:25;;;;;;;0.70;0.28;;;22.40;87.90;;;;;;4991631;28;20138;-78
2022/08/31 11:17:14;;;;;;;6.30;0.28;;;22.40;88.50;;;;;;4957591;28;20656;-78
2022/08/31 11:19:49;;;;;;;0.30;0.20;;;22.40;86.10;;;;;;4971882;28;20043;-77
2022/08/31 11:22:33;;;;;;;;;;;22.50;86.60;;;;;;4960219;28;20660;-79
2022/08/31 11:25:02;;;;;;;3.50;0.30;;;22.50;88.90;;;;;;4960049;28;19949;-78
2022/08/31 11:27:43;;;;;;;5.65;0.30;;;22.50;87.20;;;;;;4954693;28;20043;-79
2022/08/31 11:30:22;;;;;;;3.88;0.40;;;22.60;88.60;;;;;;4958398;28;20053;-79
2022/08/31 11:32:55;;;;;;;2.35;0.30;;;22.60;86.90;;;;;;4964037;28;20038;-78
2022/08/31 11:35:46;;;;;;;5.03;0.22;;;22.60;87.40;;;;;;4994368;28;20035;-78
2022/08/31 11:39:02;;;;;;;0.98;0.30;;;22.70;85.80;;;;;;4960267;28;20093;-78
2022/08/31 11:41:30;;;;;;;1.70;0.50;;;22.80;85.80;;;;;;4949588;28;20069;-79
2022/08/31 11:43:56;;;;;;;2.33;0.30;;;22.90;86.10;;;;;;4961826;28;20488;-78
2022/08/31 11:46:25;;;;;;;1.65;0.30;;;22.80;85.60;;;;;;4989028;28;20130;-78
2022/08/31 11:48:50;;;;;;;3.22;0.25;;;22.90;85.60;;;;;;4971367;28;20042;-79
2022/08/31 11:51:43;;;;;;;1.23;0.30;;;23.00;85.10;;;;;;4956427;28;20076;-81
2022/08/31 11:54:40;;;;;;;4.30;0.30;;;23.10;83.20;;;;;;4964946;28;20541;-79
2022/08/31 11:57:14;;;;;;;2.25;0.25;;;23.00;83.20;;;;;;4955837;28;20721;-80
2022/08/31 11:59:43;;;;;;;0.60;0.20;;;22.90;84.30;;;;;;4961338;28;20130;-80
2022/08/31 12:02:21;;;;;;;0.52;0.30;;;22.90;85.50;;;;;;4960223;28;20047;-79
2022/08/31 12:04:51;;;;;;;1.80;0.40;;;22.80;85.80;;;;;;4962343;28;20042;-79
2022/08/31 12:07:28;;;;;;;1.05;0.50;;;22.80;85.50;;;;;;4959890;28;20038;-79
2022/08/31 12:10:07;;;;;;;1.20;0.30;;;22.90;84.60;;;;;;4991294;28;20666;-79
2022/08/31 12:13:18;;;;;;;3.75;0.20;;;22.90;83.40;;;;;;4990541;28;20074;-79
2022/08/31 12:16:02;;;;;;;0.55;0.20;;;22.90;83.80;;;;;;4991345;28;20132;-79
2022/08/31 12:18:51;;;;;;;1.33;0.30;;;23.00;84.00;;;;;;4959163;28;20049;-79
2022/08/31 12:24:16;;;;;;;0.45;0.20;;;23.20;82.40;;;;;;4962335;28;20138;-79
2022/08/31 12:27:03;;;;;;;3.97;0.63;;;23.20;83.60;;;;;;4961962;28;20043;-79
2022/08/31 12:29:32;;;;;;;1.98;0.40;;;23.10;84.50;;;;;;4954504;28;20102;-80
2022/08/31 12:32:31;;;;;;;1.80;0.22;;;23.00;84.00;;;;;;4958031;28;20043;-79
2022/08/31 12:35:06;;;;;;;2.47;0.30;;;22.90;84.60;;;;;;4953476;28;20050;-79
2022/08/31 12:37:36;;;;;;;4.60;0.40;;;23.00;83.80;;;;;;4958010;28;20500;-79
2022/08/31 12:40:16;;;;;;;1.05;0.20;;;23.00;81.60;;;;;;4955242;28;20050;-78
2022/08/31 12:43:00;;;;;;;4.80;0.30;;;23.00;80.80;;;;;;4969130;28;20051;-78
2022/08/31 12:45:35;;;;;;;6.10;0.40;;;23.00;80.40;;;;;;4985495;28;20121;-78
2022/08/31 12:48:21;;;;;;;2.50;0.52;;;22.90;80.90;;;;;;4987970;28;20130;-78
2022/08/31 12:51:11;;;;;;;0.82;0.20;;;23.10;82.30;;;;;;4986362;28;20058;-79
2022/08/31 12:54:03;;;;;;;2.90;0.22;;;23.10;81.00;;;;;;4988238;28;20832;-79
2022/08/31 12:56:46;;;;;;;0.90;0.30;;;23.10;80.90;;;;;;4960825;28;20077;-80
2022/08/31 12:59:17;;;;;;;2.00;0.25;;;23.10;79.40;;;;;;4975269;28;20046;-78
2022/08/31 13:01:48;;;;;;;3.55;0.30;;;23.00;80.40;;;;;;4996014;28;20464;-79
2022/08/31 13:04:17;;;;;;;0.90;0.10;;;23.10;79.10;;;;;;4961863;28;20061;-81
2022/08/31 13:06:44;;;;;;;0.90;0.30;;;23.20;80.60;;;;;;4963657;28;20130;-78
2022/08/31 13:09:30;;;;;;;3.25;0.30;;;23.30;81.60;;;;;;4959039;28;20662;-79
2022/08/31 13:11:58;;;;;;;2.20;0.30;;;23.30;80.50;;;;;;4993789;28;20141;-78
2022/08/31 13:14:27;;;;;;;1.88;0.73;;;23.30;80.60;;;;;;4962259;28;20097;-79
2022/08/31 13:17:09;;;;;;;1.90;0.25;;;23.30;80.20;;;;;;4965238;28;20053;-79
2022/08/31 13:19:35;;;;;;;2.08;0.20;;;23.40;80.00;;;;;;4987620;28;20042;-79
2022/08/31 13:22:05;;;;;;;2.58;0.20;;;23.20;79.30;;;;;;4992498;28;20039;-80
2022/08/31 13:24:39;;;;;;;2.28;0.20;;;23.10;80.00;;;;;;4990999;28;20050;-79
2022/08/31 13:27:06;;;;;;;1.07;0.20;;;23.20;81.00;;;;;;4979659;28;20051;-79